createdAt,value
2023-03-25T00:01:19.288Z,3.10
2023-03-25T00:05:21.465Z,2.10
2023-03-25T00:09:23.032Z,2.03
2023-03-25T00:13:25.401Z,3.03
2023-03-25T00:17:28.375Z,6.40
2023-03-25T00:21:31.486Z,3.00
2023-03-25T00:25:33.045Z,3.93
2023-03-25T00:29:34.213Z,3.77
2023-03-25T00:33:35.625Z,4.17
2023-03-25T00:37:36.806Z,2.30
2023-03-25T00:41:40.002Z,2.50
2023-03-25T00:45:41.178Z,2.97
2023-03-25T00:49:42.348Z,4.80
2023-03-25T00:53:43.521Z,2.53
2023-03-25T00:57:44.713Z,3.60
2023-03-25T01:01:47.831Z,2.60
2023-03-25T01:05:50.336Z,2.33
2023-03-25T01:09:51.754Z,4.30
2023-03-25T01:13:59.110Z,2.97
2023-03-25T01:18:03.458Z,3.83
2023-03-25T01:22:05.483Z,3.20
2023-03-25T01:26:07.268Z,3.53
2023-03-25T01:30:10.457Z,4.93
2023-03-25T01:34:12.621Z,4.27
2023-03-25T01:38:13.792Z,3.80
2023-03-25T01:42:14.980Z,3.60
2023-03-25T01:46:16.476Z,3.20
2023-03-25T01:50:20.425Z,3.00
2023-03-25T01:54:22.360Z,2.50
2023-03-25T01:58:26.508Z,6.53
2023-03-25T02:02:30.022Z,5.40
2023-03-25T02:06:38.642Z,3.33
2023-03-25T02:10:39.926Z,6.10
2023-03-25T02:14:41.176Z,4.57
2023-03-25T02:18:49.155Z,5.10
2023-03-25T02:23:01.328Z,5.30
2023-03-25T02:27:20.429Z,4.83
2023-03-25T02:31:58.914Z,7.63
2023-03-25T02:36:21.734Z,5.63
2023-03-25T02:40:29.620Z,4.70
2023-03-25T02:44:34.686Z,3.83
2023-03-25T02:48:51.912Z,3.17
2023-03-25T02:53:00.139Z,4.20
2023-03-25T02:57:01.363Z,3.77
2023-03-25T03:01:02.727Z,4.73
2023-03-25T03:05:07.796Z,3.80
2023-03-25T03:09:31.237Z,5.40
2023-03-25T03:14:09.871Z,4.40
2023-03-25T03:18:33.151Z,2.50
2023-03-25T03:22:56.230Z,3.30
2023-03-25T03:27:11.502Z,2.03
2023-03-25T03:31:48.636Z,2.93
2023-03-25T03:35:32.535Z,3.00
2023-03-25T03:39:36.157Z,2.33
2023-03-25T03:43:44.244Z,2.20
2023-03-25T03:47:49.238Z,4.20
2023-03-25T03:52:00.197Z,2.80
2023-03-25T03:56:05.374Z,2.83
2023-03-25T04:00:10.866Z,3.20
2023-03-25T04:04:21.509Z,3.93
2023-03-25T04:08:28.055Z,2.47
2023-03-25T04:12:36.842Z,2.93
2023-03-25T04:16:38.070Z,4.23
2023-03-25T04:20:41.557Z,6.20
2023-03-25T04:24:43.420Z,4.10
2023-03-25T04:28:45.019Z,2.50
2023-03-25T04:32:46.712Z,3.00
2023-03-25T04:36:49.543Z,4.33
2023-03-25T04:40:50.729Z,4.37
2023-03-25T04:44:52.252Z,4.67
2023-03-25T04:48:55.341Z,6.07
2023-03-25T04:52:57.644Z,4.23
2023-03-25T04:56:59.279Z,3.90
2023-03-25T05:01:02.793Z,4.40
2023-03-25T05:05:04.302Z,3.20
2023-03-25T05:09:08.690Z,3.10
2023-03-25T05:13:10.085Z,3.07
2023-03-25T05:17:11.302Z,4.80
2023-03-25T05:21:12.479Z,5.90
2023-03-25T05:25:13.695Z,4.73
2023-03-25T05:29:15.484Z,4.50
2023-03-25T05:33:18.344Z,4.13
2023-03-25T05:37:19.508Z,4.13
2023-03-25T05:41:22.155Z,5.07
2023-03-25T05:45:23.342Z,3.87
2023-03-25T05:49:24.482Z,4.93
2023-03-25T05:53:25.651Z,4.13
2023-03-25T05:57:26.906Z,4.60
2023-03-25T06:05:33.142Z,3.30
2023-03-25T06:09:35.516Z,5.13
2023-03-25T06:13:39.588Z,6.57
2023-03-25T06:17:40.786Z,5.50
2023-03-25T06:21:43.051Z,6.13
2023-03-25T06:25:44.210Z,4.10
2023-03-25T06:29:46.493Z,2.67
2023-03-25T06:33:48.863Z,3.03
2023-03-25T06:37:50.038Z,3.00
2023-03-25T06:41:51.220Z,3.90
2023-03-25T06:45:52.997Z,4.93
2023-03-25T06:49:54.640Z,5.27
2023-03-25T06:53:55.854Z,4.50
2023-03-25T06:57:56.978Z,6.43
2023-03-25T07:01:58.998Z,9.77
2023-03-25T07:06:00.237Z,4.03
2023-03-25T07:10:01.716Z,5.60
2023-03-25T07:14:02.907Z,4.97
2023-03-25T07:18:05.497Z,5.07
2023-03-25T07:22:06.643Z,7.10
2023-03-25T07:26:07.918Z,8.20
2023-03-25T07:30:09.584Z,4.73
2023-03-25T07:34:10.727Z,6.67
2023-03-25T07:38:11.907Z,6.70
2023-03-25T07:42:14.769Z,7.03
2023-03-25T07:46:16.032Z,5.40
2023-03-25T07:50:17.731Z,9.60
2023-03-25T07:54:21.058Z,6.97
2023-03-25T07:58:23.602Z,10.23
2023-03-25T08:02:24.776Z,8.70
2023-03-25T08:06:26.063Z,8.37
2023-03-25T08:10:28.921Z,11.30
2023-03-25T08:14:31.139Z,10.67
2023-03-25T08:18:32.369Z,9.40
2023-03-25T08:22:34.334Z,9.33
2023-03-25T08:26:36.273Z,8.63
2023-03-25T08:30:38.034Z,8.27
2023-03-25T08:34:39.510Z,7.30
2023-03-25T08:38:41.362Z,8.77
2023-03-25T08:42:42.831Z,12.47
2023-03-25T08:46:44.108Z,7.80
2023-03-25T08:50:45.435Z,9.57
2023-03-25T08:54:46.574Z,7.80
2023-03-25T08:58:47.763Z,9.00
2023-03-25T09:02:49.066Z,8.07
2023-03-25T09:07:11.291Z,9.67
2023-03-25T09:10:55.685Z,7.50
2023-03-25T09:14:56.859Z,6.73
2023-03-25T09:18:58.041Z,9.20
2023-03-25T09:22:59.481Z,8.10
2023-03-25T09:27:07.243Z,9.20
2023-03-25T09:31:08.670Z,9.10
2023-03-25T09:35:09.814Z,7.53
2023-03-25T09:39:11.365Z,8.27
2023-03-25T09:43:34.991Z,7.67
2023-03-25T09:47:36.556Z,7.17
2023-03-25T09:51:40.045Z,10.43
2023-03-25T09:55:43.910Z,4.93
2023-03-25T09:59:48.855Z,5.23
2023-03-25T10:04:23.273Z,5.47
2023-03-25T10:08:43.192Z,12.60
2023-03-25T10:13:12.357Z,3.20
2023-03-25T10:17:23.339Z,3.47
2023-03-25T10:21:34.337Z,3.27
2023-03-25T10:25:38.732Z,4.17
2023-03-25T10:29:49.709Z,4.50
2023-03-25T10:33:55.571Z,3.43
2023-03-25T10:38:13.687Z,5.80
2023-03-25T10:42:27.608Z,3.87
2023-03-25T10:46:49.392Z,3.40
2023-03-25T10:50:53.962Z,3.87
2023-03-25T10:54:56.244Z,2.80
2023-03-25T10:59:00.193Z,2.50
2023-03-25T11:03:01.646Z,4.07
2023-03-25T11:07:07.141Z,4.80
2023-03-25T11:11:08.316Z,5.03
2023-03-25T11:15:21.941Z,5.00
2023-03-25T11:19:30.152Z,5.23
2023-03-25T11:23:37.233Z,3.87
2023-03-25T11:27:56.018Z,4.50
2023-03-25T11:32:06.850Z,3.17
2023-03-25T11:36:23.689Z,4.50
2023-03-25T11:40:26.956Z,6.50
2023-03-25T11:44:30.318Z,6.23
2023-03-25T11:48:35.291Z,4.00
2023-03-25T11:52:46.075Z,6.97
2023-03-25T11:56:50.739Z,5.83
2023-03-25T12:01:07.499Z,4.37
2023-03-25T12:05:12.592Z,6.27
2023-03-25T12:09:13.763Z,3.50
2023-03-25T12:13:50.577Z,3.23
2023-03-25T12:18:13.394Z,8.47
2023-03-25T12:22:18.271Z,4.67
2023-03-25T12:26:35.220Z,3.90
2023-03-25T12:30:46.034Z,3.97
2023-03-25T12:35:03.460Z,3.80
2023-03-25T12:39:42.049Z,2.33
2023-03-25T12:43:48.211Z,5.43
2023-03-25T12:48:12.667Z,4.43
2023-03-25T12:52:37.730Z,5.93
2023-03-25T12:56:45.750Z,3.37
2023-03-25T13:00:56.884Z,3.20
2023-03-25T13:05:23.563Z,3.13
2023-03-25T13:09:46.426Z,2.50
2023-03-25T13:13:50.756Z,3.97
2023-03-25T13:17:58.989Z,7.03
2023-03-25T13:22:07.229Z,5.43
2023-03-25T13:26:11.772Z,3.53
2023-03-25T13:30:23.309Z,4.43
2023-03-25T13:34:38.152Z,2.73
2023-03-25T13:38:51.819Z,3.33
2023-03-25T13:43:02.889Z,3.07
2023-03-25T13:47:14.093Z,3.40
2023-03-25T13:51:15.347Z,3.23
2023-03-25T13:55:21.344Z,3.00
2023-03-25T14:00:00.266Z,4.13
2023-03-25T14:04:39.271Z,7.17
2023-03-25T14:09:10.343Z,4.27
2023-03-25T14:13:21.469Z,3.40
2023-03-25T14:17:23.292Z,7.50
2023-03-25T14:21:39.938Z,4.53
2023-03-25T14:25:47.836Z,3.80
2023-03-25T14:29:58.899Z,5.23
2023-03-25T14:34:04.022Z,3.77
2023-03-25T14:38:09.057Z,5.57
2023-03-25T14:42:28.344Z,4.67
2023-03-25T14:46:34.176Z,3.90
2023-03-25T14:50:36.136Z,3.80
2023-03-25T14:54:37.416Z,3.33
2023-03-25T14:58:38.807Z,3.83
2023-03-25T15:02:43.222Z,4.30
2023-03-25T15:06:46.173Z,5.83
2023-03-25T15:10:52.352Z,5.83
2023-03-25T15:14:57.884Z,5.97
2023-03-25T15:19:02.587Z,5.23
2023-03-25T15:23:29.546Z,3.43
2023-03-25T15:27:44.456Z,5.13
2023-03-25T15:32:01.838Z,4.70
2023-03-25T15:36:22.249Z,3.80
2023-03-25T15:40:56.458Z,3.97
2023-03-25T15:45:07.341Z,4.73
2023-03-25T15:49:32.445Z,4.77
2023-03-25T15:53:57.532Z,3.20
2023-03-25T15:58:02.257Z,5.90
2023-03-25T16:02:07.556Z,3.00
2023-03-25T16:06:12.522Z,3.73
2023-03-25T16:10:36.872Z,5.17
2023-03-25T16:14:40.171Z,4.70
2023-03-25T16:18:46.078Z,5.47
2023-03-25T16:22:53.447Z,5.47
2023-03-25T16:26:55.903Z,5.83
2023-03-25T16:30:57.347Z,4.33
2023-03-25T16:34:58.998Z,4.20
2023-03-25T16:39:00.690Z,5.63
2023-03-25T16:43:08.193Z,7.47
2023-03-25T16:47:12.666Z,4.20
2023-03-25T16:51:23.707Z,5.37
2023-03-25T16:55:30.883Z,8.07
2023-03-25T16:59:36.228Z,4.63
2023-03-25T17:03:42.866Z,3.30
2023-03-25T17:07:50.336Z,4.40
2023-03-25T17:11:56.104Z,5.37
2023-03-25T17:15:58.022Z,6.40
2023-03-25T17:20:06.259Z,7.90
2023-03-25T17:24:21.913Z,7.80
2023-03-25T17:28:32.957Z,5.60
2023-03-25T17:32:43.068Z,7.43
2023-03-25T17:36:47.382Z,6.33
2023-03-25T17:40:57.781Z,5.90
2023-03-25T17:45:00.024Z,3.57
2023-03-25T17:49:01.122Z,5.20
2023-03-25T17:53:02.263Z,4.60
2023-03-25T17:57:07.342Z,7.63
2023-03-25T18:01:11.677Z,6.57
2023-03-25T18:05:13.381Z,7.43
2023-03-25T18:09:23.339Z,4.53
2023-03-25T18:13:24.836Z,5.13
2023-03-25T18:17:26.127Z,3.60
2023-03-25T18:21:27.397Z,5.40
2023-03-25T18:25:28.651Z,2.90
2023-03-25T18:29:30.686Z,3.67
2023-03-25T18:33:34.426Z,3.87
2023-03-25T18:37:35.695Z,2.17
2023-03-25T18:41:36.873Z,3.80
2023-03-25T18:45:38.257Z,3.60
2023-03-25T18:49:41.108Z,2.73
2023-03-25T18:53:42.166Z,3.57
2023-03-25T18:57:43.347Z,2.63
2023-03-25T19:01:44.554Z,3.40
2023-03-25T19:05:46.997Z,4.20
2023-03-25T19:09:48.168Z,2.53
2023-03-25T19:13:50.542Z,2.30
2023-03-25T19:17:52.454Z,2.70
2023-03-25T19:21:53.575Z,2.60
2023-03-25T19:25:56.740Z,4.07
2023-03-25T19:29:57.996Z,2.97
2023-03-25T19:33:59.167Z,2.87
2023-03-25T19:38:02.319Z,4.33
2023-03-25T19:42:03.750Z,2.60
2023-03-25T19:46:06.542Z,3.93
2023-03-25T19:50:14.793Z,3.30
2023-03-25T19:54:16.179Z,2.60
2023-03-25T19:58:20.175Z,3.63
2023-03-25T20:02:20.892Z,3.27
2023-03-25T20:06:22.326Z,3.03
2023-03-25T20:10:27.505Z,2.73
2023-03-25T20:14:28.876Z,2.77
2023-03-25T20:18:30.231Z,3.40
2023-03-25T20:22:31.508Z,2.90
2023-03-25T20:26:33.150Z,3.63
2023-03-25T20:30:35.011Z,4.30
2023-03-25T20:34:38.013Z,4.33
2023-03-25T20:38:41.951Z,2.63
2023-03-25T20:42:44.606Z,4.10
2023-03-25T20:46:46.486Z,5.37
2023-03-25T20:50:48.131Z,3.20
2023-03-25T20:54:50.070Z,4.37
2023-03-25T20:58:51.504Z,4.83
2023-03-25T21:02:53.703Z,4.60
2023-03-25T21:06:55.104Z,4.57
2023-03-25T21:10:57.841Z,4.50
2023-03-25T21:14:59.186Z,4.87
2023-03-25T21:19:03.417Z,6.10
2023-03-25T21:23:06.513Z,3.40
2023-03-25T21:27:07.929Z,5.07
2023-03-25T21:31:13.890Z,5.53
2023-03-25T21:35:15.850Z,5.00
2023-03-25T21:39:17.355Z,6.30
2023-03-25T21:43:18.851Z,6.10
2023-03-25T21:47:20.267Z,4.50
2023-03-25T21:51:21.663Z,5.07
2023-03-25T21:55:23.050Z,4.90
2023-03-25T21:59:24.325Z,4.53
2023-03-25T22:03:33.009Z,5.83
2023-03-25T22:07:34.308Z,4.20
2023-03-25T22:11:37.067Z,4.57
2023-03-25T22:15:38.503Z,4.23
2023-03-25T22:19:40.550Z,5.80
2023-03-25T22:23:45.115Z,5.80
2023-03-25T22:27:46.711Z,4.90
2023-03-25T22:31:49.893Z,5.70
2023-03-25T22:35:51.427Z,6.10
2023-03-25T22:39:52.861Z,4.67
2023-03-25T22:43:55.179Z,9.47
2023-03-25T22:47:56.700Z,7.07
2023-03-25T22:51:58.152Z,5.23
2023-03-25T22:55:59.430Z,4.40
2023-03-25T23:00:03.558Z,4.60
2023-03-25T23:04:05.492Z,6.30
2023-03-25T23:08:09.703Z,4.60
2023-03-25T23:12:13.424Z,5.23
2023-03-25T23:16:18.060Z,6.10
2023-03-25T23:20:19.950Z,7.80
2023-03-25T23:24:21.342Z,7.90
2023-03-25T23:28:22.735Z,5.70
2023-03-25T23:32:24.233Z,7.43
2023-03-25T23:36:27.605Z,4.37
2023-03-25T23:40:29.552Z,7.47
2023-03-25T23:44:30.839Z,10.03
2023-03-25T23:48:35.314Z,4.90
2023-03-25T23:52:36.994Z,6.10
2023-03-25T23:56:38.974Z,5.67
